createdAt,value
2019-04-16T00:09:56.344Z,33.70
2019-04-16T00:19:58.375Z,34.60
2019-04-16T00:30:04.114Z,34.00
2019-04-16T00:40:04.334Z,33.80
2019-04-16T00:50:06.679Z,33.80
2019-04-16T01:00:09.642Z,33.70
2019-04-16T01:10:11.518Z,34.10
2019-04-16T01:20:13.560Z,36.50
2019-04-16T01:30:15.616Z,34.80
2019-04-16T01:40:18.673Z,35.60
2019-04-16T01:50:21.262Z,36.50
2019-04-16T02:00:23.367Z,36.10
2019-04-16T02:10:25.308Z,36.00
2019-04-16T02:20:27.330Z,36.40
2019-04-16T02:30:29.261Z,36.80
2019-04-16T02:40:31.199Z,37.10
2019-04-16T02:50:33.407Z,38.00
2019-04-16T03:00:35.472Z,38.00
2019-04-16T03:10:37.386Z,38.50
2019-04-16T03:20:39.446Z,38.80
2019-04-16T03:30:42.858Z,38.90
2019-04-16T03:40:45.012Z,39.30
2019-04-16T03:50:47.014Z,39.70
2019-04-16T04:00:49.113Z,40.50
2019-04-16T04:10:51.201Z,41.30
2019-04-16T04:20:53.243Z,42.30
2019-04-16T04:30:57.764Z,42.90
2019-04-16T04:40:59.860Z,43.30
2019-04-16T04:51:06.973Z,44.00
2019-04-16T05:01:05.868Z,44.60
2019-04-16T05:11:07.938Z,45.00
2019-04-16T05:21:09.919Z,45.30
2019-04-16T05:31:12.236Z,45.80
2019-04-16T05:41:20.540Z,46.40
2019-04-16T05:51:18.062Z,46.60
2019-04-16T06:01:20.062Z,46.40
2019-04-16T06:11:29.011Z,46.30
2019-04-16T06:21:26.811Z,47.00
2019-04-16T06:31:29.013Z,46.90
2019-04-16T06:41:41.547Z,46.50
2019-04-16T06:51:34.739Z,44.20
2019-04-16T07:01:38.677Z,42.30
2019-04-16T07:11:53.406Z,41.20
2019-04-16T07:21:48.717Z,40.20
2019-04-16T07:31:51.754Z,39.50
2019-04-16T07:41:51.995Z,39.60
2019-04-16T07:51:53.955Z,39.00
2019-04-16T08:01:56.061Z,37.30
2019-04-16T08:11:58.008Z,36.70
2019-04-16T08:22:00.173Z,35.90
2019-04-16T08:32:02.203Z,35.10
2019-04-16T08:42:04.291Z,34.70
2019-04-16T08:52:09.968Z,34.30
2019-04-16T09:02:10.141Z,33.50
2019-04-16T09:12:12.087Z,32.40
2019-04-16T09:22:16.847Z,31.60
2019-04-16T09:32:17.849Z,31.10
2019-04-16T09:42:19.781Z,30.10
2019-04-16T09:52:22.956Z,29.60
2019-04-16T10:02:25.560Z,29.10
2019-04-16T10:12:28.720Z,29.20
2019-04-16T10:22:30.739Z,28.20
2019-04-16T10:32:32.713Z,27.90
2019-04-16T10:42:34.736Z,27.30
2019-04-16T10:52:36.676Z,27.00
2019-04-16T11:02:38.614Z,26.10
2019-04-16T11:12:40.587Z,25.50
2019-04-16T11:22:42.669Z,25.00
2019-04-16T11:32:44.682Z,24.50
2019-04-16T11:42:46.675Z,23.90
2019-04-16T11:52:48.727Z,23.10
2019-04-16T12:02:50.778Z,15.60
2019-04-16T12:12:52.713Z,11.00
2019-04-16T12:22:54.694Z,7.80
2019-04-16T12:32:56.826Z,6.00
2019-04-16T12:42:58.827Z,5.50
2019-04-16T12:53:00.734Z,4.90
2019-04-16T13:03:02.933Z,3.50
2019-04-16T13:13:04.923Z,2.90
2019-04-16T13:23:07.091Z,2.30
2019-04-16T13:33:10.344Z,1.60
2019-04-16T13:43:12.721Z,2.80
2019-04-16T13:53:14.841Z,3.70
2019-04-16T14:03:16.837Z,3.30
2019-04-16T14:13:18.892Z,3.50
2019-04-16T14:23:20.799Z,6.30
2019-04-16T14:33:22.867Z,7.50
2019-04-16T14:43:29.170Z,5.20
2019-04-16T14:53:28.660Z,4.30
2019-04-16T15:03:30.608Z,4.90
2019-04-16T15:13:32.583Z,5.60
2019-04-16T15:23:34.539Z,8.10
2019-04-16T15:33:38.979Z,10.60
2019-04-16T15:43:40.439Z,13.00
2019-04-16T15:53:42.394Z,15.10
2019-04-16T16:03:44.348Z,15.60
2019-04-16T16:13:46.722Z,16.80
2019-04-16T16:23:48.674Z,18.50
2019-04-16T16:33:50.692Z,20.30
2019-04-16T16:43:52.678Z,21.70
2019-04-16T16:53:54.645Z,22.90
2019-04-16T17:03:56.020Z,24.10
2019-04-16T17:14:01.332Z,27.70
2019-04-16T17:24:10.183Z,25.90
2019-04-16T17:34:12.199Z,27.40
2019-04-16T17:44:15.599Z,28.60
2019-04-16T17:54:17.582Z,29.50
2019-04-16T18:04:19.616Z,30.20
2019-04-16T18:14:21.567Z,31.50
2019-04-16T18:24:23.551Z,32.40
2019-04-16T18:34:25.568Z,33.70
2019-04-16T18:44:29.308Z,34.20
2019-04-16T18:54:31.360Z,35.10
2019-04-16T19:04:33.454Z,35.30
2019-04-16T19:14:36.690Z,35.50
2019-04-16T19:24:38.937Z,35.90
2019-04-16T19:34:41.809Z,36.80
2019-04-16T19:44:43.997Z,37.10
2019-04-16T19:54:45.977Z,37.60
2019-04-16T20:04:50.736Z,38.60
2019-04-16T20:14:51.908Z,39.20
2019-04-16T20:24:54.021Z,39.90
2019-04-16T20:34:56.118Z,40.30
2019-04-16T20:44:58.115Z,40.70
2019-04-16T20:55:01.977Z,41.10
2019-04-16T21:05:05.028Z,41.60
2019-04-16T21:15:07.192Z,41.90
2019-04-16T21:25:12.304Z,42.70
2019-04-16T21:35:13.399Z,43.50
2019-04-16T21:45:16.455Z,43.60
2019-04-16T21:55:19.128Z,44.90
2019-04-16T22:05:21.107Z,44.60
2019-04-16T22:15:25.439Z,45.10
2019-04-16T22:25:27.741Z,45.60
2019-04-16T22:35:31.832Z,46.00
2019-04-16T22:45:33.054Z,50.00
2019-04-16T22:55:35.134Z,46.30
2019-04-16T23:05:37.145Z,46.80
2019-04-16T23:15:39.170Z,46.80
2019-04-16T23:25:41.171Z,46.90
2019-04-16T23:35:44.472Z,47.00
2019-04-16T23:45:46.755Z,47.20
2019-04-16T23:55:49.891Z,47.20
